Terminal Aerodrome Forecast
Issued by NWS

Home | Current Version | Previous Version | Text Only | Print | Product List | Glossary On
Versions: 1 2 3 4 5 6 7 8 9 10 11 12 13 14 15 16 17 18 19
007
FTUS46 KMTR 291122
TAFSNS
TAF
KSNS 291122Z 2912/3012 31003KT P6SM OVC004
      TEMPO 2912/2914 1SM BR
     FM291600 VRB04KT P6SM FEW008
     FM292000 29014KT P6SM SKC
     FM300300 30010KT 6SM BR OVC004
     FM300500 30006KT 2SM BR OVC002=

USA.gov is the U.S. government's official web portal to all federal, state and local government web resources and services.